createdAt,value
2023-03-13T00:00:34.157Z,0.00
2023-03-13T00:01:34.140Z,0.00
2023-03-13T00:02:34.173Z,0.00
2023-03-13T00:03:34.048Z,0.00
2023-03-13T00:04:34.099Z,0.00
2023-03-13T00:05:34.020Z,0.00
2023-03-13T00:06:34.013Z,0.00
2023-03-13T00:07:33.968Z,0.00
2023-03-13T00:08:33.938Z,0.00
2023-03-13T00:09:33.924Z,0.00
2023-03-13T00:10:33.927Z,0.00
2023-03-13T00:11:33.928Z,0.00
2023-03-13T00:12:33.851Z,0.00
2023-03-13T00:13:33.843Z,0.00
2023-03-13T00:14:33.794Z,0.00
2023-03-13T00:15:33.789Z,0.00
2023-03-13T00:16:33.836Z,0.00
2023-03-13T00:17:33.729Z,0.00
2023-03-13T00:18:33.710Z,0.00
2023-03-13T00:19:33.682Z,0.00
2023-03-13T00:20:33.653Z,0.00
2023-03-13T00:21:33.637Z,0.00
2023-03-13T00:22:33.634Z,0.00
2023-03-13T00:23:33.589Z,0.00
2023-03-13T00:24:33.567Z,0.00
2023-03-13T00:25:33.533Z,0.00
2023-03-13T00:26:33.516Z,0.00
2023-03-13T00:27:33.493Z,0.00
2023-03-13T00:28:33.479Z,0.00
2023-03-13T00:29:33.450Z,0.00
2023-03-13T00:30:33.452Z,0.00
2023-03-13T00:31:33.424Z,0.00
2023-03-13T00:32:33.484Z,0.00
2023-03-13T00:33:33.370Z,0.00
2023-03-13T00:34:33.333Z,0.00
2023-03-13T00:35:33.343Z,0.00
2023-03-13T00:36:33.306Z,0.00
2023-03-13T00:37:33.245Z,0.00
2023-03-13T00:38:33.272Z,0.00
2023-03-13T00:39:33.211Z,0.00
2023-03-13T00:40:33.186Z,0.00
2023-03-13T00:41:33.156Z,0.00
2023-03-13T00:42:33.139Z,0.00
2023-03-13T00:43:33.108Z,0.00
2023-03-13T00:44:33.092Z,0.00
2023-03-13T00:45:33.074Z,0.00
2023-03-13T00:46:33.083Z,0.00
2023-03-13T00:47:33.012Z,0.00
2023-03-13T00:48:32.998Z,0.00
2023-03-13T00:49:32.978Z,0.00
2023-03-13T00:50:32.983Z,0.00
2023-03-13T00:51:32.923Z,0.00
2023-03-13T00:52:32.909Z,0.00
2023-03-13T00:53:32.885Z,0.00
2023-03-13T00:54:32.860Z,0.00
2023-03-13T00:55:32.827Z,0.00
2023-03-13T00:56:32.810Z,0.00
2023-03-13T00:57:32.787Z,0.00
2023-03-13T00:58:32.768Z,0.00
2023-03-13T00:59:32.818Z,0.00
2023-03-13T01:00:32.740Z,0.00
2023-03-13T01:01:32.698Z,0.00
2023-03-13T01:02:32.798Z,0.00
2023-03-13T01:03:32.896Z,0.00
2023-03-13T01:04:32.629Z,0.00
2023-03-13T01:05:32.699Z,0.00
2023-03-13T01:06:32.588Z,0.00
2023-03-13T01:07:32.555Z,0.00
2023-03-13T01:08:32.545Z,0.00
2023-03-13T01:09:32.517Z,0.00
2023-03-13T01:10:32.491Z,0.00
2023-03-13T01:11:32.466Z,0.00
2023-03-13T01:12:32.444Z,0.00
2023-03-13T01:13:32.415Z,0.00
2023-03-13T01:14:32.396Z,0.00
2023-03-13T01:15:32.498Z,0.00
2023-03-13T01:16:32.365Z,0.00
2023-03-13T01:17:32.320Z,0.00
2023-03-13T01:18:32.304Z,0.00
2023-03-13T01:19:32.266Z,0.00
2023-03-13T01:20:32.268Z,0.00
2023-03-13T01:21:32.248Z,0.00
2023-03-13T01:22:32.243Z,0.00
2023-03-13T01:23:32.178Z,0.00
2023-03-13T01:24:32.175Z,0.00
2023-03-13T01:25:32.189Z,0.00
2023-03-13T01:26:32.128Z,0.00
2023-03-13T01:27:32.093Z,0.00
2023-03-13T01:28:32.078Z,0.00
2023-03-13T01:29:32.043Z,0.00
2023-03-13T01:30:32.025Z,0.00
2023-03-13T01:31:32.072Z,0.00
2023-03-13T01:32:32.000Z,0.00
2023-03-13T01:33:31.957Z,0.00
2023-03-13T01:34:31.927Z,0.00
2023-03-13T01:35:31.907Z,0.00
2023-03-13T01:36:31.885Z,0.00
2023-03-13T01:37:31.884Z,0.00
2023-03-13T01:38:31.836Z,0.00
2023-03-13T01:39:31.824Z,0.00
2023-03-13T01:40:31.794Z,0.00
2023-03-13T01:41:31.775Z,0.00
2023-03-13T01:42:31.745Z,0.00
2023-03-13T01:43:31.711Z,0.00
2023-03-13T01:44:31.710Z,0.00
2023-03-13T01:45:31.663Z,0.00
2023-03-13T01:46:31.684Z,0.00
2023-03-13T01:47:31.628Z,0.00
2023-03-13T01:48:31.623Z,0.00
2023-03-13T01:49:31.579Z,0.00
2023-03-13T01:50:31.552Z,0.00
2023-03-13T01:51:31.533Z,0.00
2023-03-13T01:52:31.529Z,0.00
2023-03-13T01:53:31.485Z,0.00
2023-03-13T01:54:31.469Z,0.00
2023-03-13T01:55:31.438Z,0.00
2023-03-13T01:56:31.465Z,0.00
2023-03-13T01:57:31.389Z,0.00
2023-03-13T01:58:31.440Z,0.00
2023-03-13T01:59:31.339Z,0.00
2023-03-13T02:00:31.317Z,0.00
2023-03-13T02:01:31.350Z,0.00
2023-03-13T02:02:31.324Z,0.00
2023-03-13T02:03:31.264Z,0.00
2023-03-13T02:04:31.251Z,0.00
2023-03-13T02:05:31.204Z,0.00
2023-03-13T02:06:31.195Z,0.00
2023-03-13T02:07:31.189Z,0.00
2023-03-13T02:08:31.140Z,0.00
2023-03-13T02:09:31.126Z,0.00
2023-03-13T02:10:31.100Z,0.00
2023-03-13T02:11:31.071Z,0.00
2023-03-13T02:12:31.073Z,0.00
2023-03-13T02:13:31.016Z,0.00
2023-03-13T02:14:30.994Z,0.00
2023-03-13T02:15:30.983Z,0.00
2023-03-13T02:16:30.984Z,0.00
2023-03-13T02:17:30.925Z,0.00
2023-03-13T02:18:30.903Z,0.00
2023-03-13T02:19:30.900Z,0.00
2023-03-13T02:20:30.863Z,0.00
2023-03-13T02:21:30.831Z,0.00
2023-03-13T02:22:30.829Z,0.00
2023-03-13T02:23:30.789Z,0.00
2023-03-13T02:24:30.769Z,0.00
2023-03-13T02:25:30.744Z,0.00
2023-03-13T02:26:30.726Z,0.00
2023-03-13T02:27:30.688Z,0.00
2023-03-13T02:28:30.683Z,0.00
2023-03-13T02:29:30.665Z,0.00
2023-03-13T02:30:30.626Z,0.00
2023-03-13T02:31:30.686Z,0.00
2023-03-13T02:32:30.617Z,0.00
2023-03-13T02:33:30.547Z,0.00
2023-03-13T02:34:30.533Z,0.00
2023-03-13T02:35:30.547Z,0.00
2023-03-13T02:36:30.483Z,0.00
2023-03-13T02:37:30.454Z,0.00
2023-03-13T02:38:30.443Z,0.00
2023-03-13T02:39:30.419Z,0.00
2023-03-13T02:40:30.391Z,0.00
2023-03-13T02:41:30.364Z,0.00
2023-03-13T02:42:30.342Z,0.00
2023-03-13T02:43:30.329Z,0.00
2023-03-13T02:44:30.297Z,0.00
2023-03-13T02:45:30.270Z,0.00
2023-03-13T02:46:30.343Z,0.00
2023-03-13T02:47:30.224Z,0.00
2023-03-13T02:48:30.209Z,0.00
2023-03-13T02:49:30.219Z,0.00
2023-03-13T02:50:30.183Z,0.00
2023-03-13T02:51:30.156Z,0.00
2023-03-13T02:52:30.169Z,0.00
2023-03-13T02:53:30.106Z,0.00
2023-03-13T02:54:30.072Z,0.00
2023-03-13T02:55:30.046Z,0.00
2023-03-13T02:56:30.032Z,0.00
2023-03-13T02:57:30.002Z,0.00
2023-03-13T02:58:31.777Z,0.00
2023-03-13T02:59:29.943Z,0.00
2023-03-13T03:00:30.000Z,0.00
2023-03-13T03:01:29.896Z,0.00
2023-03-13T03:02:30.802Z,0.00
2023-03-13T03:03:29.850Z,0.00
2023-03-13T03:04:29.840Z,0.00
2023-03-13T03:05:29.820Z,0.00
2023-03-13T03:06:29.790Z,0.00
2023-03-13T03:07:29.758Z,0.00
2023-03-13T03:08:29.752Z,0.00
2023-03-13T03:09:29.709Z,0.00
2023-03-13T03:10:29.697Z,0.00
2023-03-13T03:11:29.706Z,0.00
2023-03-13T03:12:29.655Z,0.00
2023-03-13T03:13:29.642Z,0.00
2023-03-13T03:14:29.598Z,0.00
2023-03-13T03:15:29.595Z,0.00
2023-03-13T03:16:29.613Z,0.00
2023-03-13T03:17:29.520Z,0.00
2023-03-13T03:18:29.504Z,0.00
2023-03-13T03:19:29.496Z,0.00
2023-03-13T03:20:29.465Z,0.00
2023-03-13T03:21:29.427Z,0.00
2023-03-13T03:22:29.405Z,0.00
2023-03-13T03:23:29.433Z,0.00
2023-03-13T03:24:29.359Z,0.00
2023-03-13T03:25:29.339Z,0.00
2023-03-13T03:26:29.310Z,0.00
2023-03-13T03:27:29.287Z,0.00
2023-03-13T03:28:29.263Z,0.00
2023-03-13T03:29:29.326Z,0.00
2023-03-13T03:30:29.218Z,0.00
2023-03-13T03:31:29.202Z,0.00
2023-03-13T03:32:29.197Z,0.00
2023-03-13T03:33:29.130Z,0.00
2023-03-13T03:34:29.116Z,0.00
2023-03-13T03:35:29.091Z,0.00
2023-03-13T03:36:29.066Z,0.00
2023-03-13T03:37:29.044Z,0.00
2023-03-13T03:38:29.019Z,0.00
2023-03-13T03:39:29.010Z,0.00
2023-03-13T03:40:28.968Z,0.00
2023-03-13T03:41:28.938Z,0.00
2023-03-13T03:42:28.926Z,0.00
2023-03-13T03:43:28.912Z,0.00
2023-03-13T03:44:28.882Z,0.00
2023-03-13T03:45:28.906Z,0.00
2023-03-13T03:46:28.841Z,0.00
2023-03-13T03:47:28.878Z,0.00
2023-03-13T03:48:28.796Z,0.00
2023-03-13T03:49:28.761Z,0.00
2023-03-13T03:50:28.817Z,0.00
2023-03-13T03:51:28.711Z,0.00
2023-03-13T03:52:28.687Z,0.00
2023-03-13T03:53:28.669Z,0.00
2023-03-13T03:54:28.640Z,0.00
2023-03-13T03:55:28.613Z,0.00
2023-03-13T03:56:28.591Z,0.00
2023-03-13T03:57:28.561Z,0.00
2023-03-13T03:58:28.550Z,0.00
2023-03-13T03:59:28.518Z,0.00
2023-03-13T04:00:28.553Z,0.00
2023-03-13T04:01:28.474Z,0.00
2023-03-13T04:02:28.495Z,0.00
2023-03-13T04:03:28.521Z,0.00
2023-03-13T04:04:28.416Z,0.00
2023-03-13T04:05:28.378Z,0.00
2023-03-13T04:06:28.361Z,0.00
2023-03-13T04:07:28.320Z,0.00
2023-03-13T04:08:28.304Z,0.00
2023-03-13T04:09:30.440Z,0.00
2023-03-13T04:10:28.253Z,0.00
2023-03-13T04:11:28.232Z,0.00
2023-03-13T04:12:28.201Z,0.00
2023-03-13T04:13:28.184Z,0.00
2023-03-13T04:14:28.179Z,0.00
2023-03-13T04:15:28.141Z,0.00
2023-03-13T04:16:28.157Z,0.00
2023-03-13T04:17:28.093Z,0.00
2023-03-13T04:18:28.072Z,0.00
2023-03-13T04:19:28.041Z,0.00
2023-03-13T04:20:28.023Z,0.00
2023-03-13T04:21:28.006Z,0.00
2023-03-13T04:22:27.969Z,0.00
2023-03-13T04:23:27.958Z,0.00
2023-03-13T04:24:27.918Z,0.00
2023-03-13T04:25:27.899Z,0.00
2023-03-13T04:26:27.886Z,0.00
2023-03-13T04:27:27.884Z,0.00
2023-03-13T04:28:27.837Z,0.00
2023-03-13T04:29:27.794Z,0.00
2023-03-13T04:30:27.798Z,0.00
2023-03-13T04:31:27.753Z,0.00
2023-03-13T04:32:27.765Z,0.00
2023-03-13T04:33:27.720Z,0.00
2023-03-13T04:34:27.674Z,0.00
2023-03-13T04:35:27.723Z,0.00
2023-03-13T04:36:27.709Z,0.00
2023-03-13T04:37:27.609Z,0.00
2023-03-13T04:38:27.596Z,0.00
2023-03-13T04:39:27.552Z,0.00
2023-03-13T04:40:27.525Z,0.00
2023-03-13T04:41:27.511Z,0.00
2023-03-13T04:42:27.480Z,0.00
2023-03-13T04:43:27.464Z,0.00
2023-03-13T04:44:27.450Z,0.00
2023-03-13T04:45:27.411Z,0.00
2023-03-13T04:46:27.490Z,0.00
2023-03-13T04:47:27.362Z,0.00
2023-03-13T04:48:27.336Z,0.00
2023-03-13T04:49:27.319Z,0.00
2023-03-13T04:50:27.294Z,0.00
2023-03-13T04:51:27.301Z,0.00
2023-03-13T04:52:27.243Z,0.00
2023-03-13T04:53:27.232Z,0.00
2023-03-13T04:54:27.195Z,0.00
2023-03-13T04:55:27.172Z,0.00
2023-03-13T04:56:42.091Z,0.00
2023-03-13T04:57:27.123Z,0.00
2023-03-13T04:58:27.092Z,0.00
2023-03-13T04:59:27.093Z,0.00
2023-03-13T05:00:27.055Z,0.00
2023-03-13T05:01:27.135Z,0.00
2023-03-13T05:02:27.005Z,0.00
2023-03-13T05:03:26.985Z,0.00
2023-03-13T05:04:26.959Z,0.00
2023-03-13T05:05:27.046Z,0.00
2023-03-13T05:06:26.904Z,0.00
2023-03-13T05:07:26.882Z,0.00
2023-03-13T05:08:26.887Z,0.00
2023-03-13T05:09:26.840Z,0.00
2023-03-13T05:10:26.804Z,0.00
2023-03-13T05:11:26.799Z,0.00
2023-03-13T05:12:26.755Z,0.00
2023-03-13T05:13:26.733Z,0.00
2023-03-13T05:14:26.716Z,0.00
2023-03-13T05:15:26.691Z,0.00
2023-03-13T05:16:26.735Z,0.00
2023-03-13T05:17:26.662Z,0.00
2023-03-13T05:18:26.629Z,0.00
2023-03-13T05:19:26.609Z,0.00
2023-03-13T05:20:26.576Z,0.00
2023-03-13T05:21:26.565Z,0.00
2023-03-13T05:22:26.528Z,0.00
2023-03-13T05:23:26.504Z,0.00
2023-03-13T05:24:26.482Z,0.00
2023-03-13T05:25:26.451Z,4.00
2023-03-13T05:26:26.449Z,4.00
2023-03-13T05:27:26.444Z,0.00
2023-03-13T05:28:26.385Z,4.00
2023-03-13T05:29:26.361Z,8.00
2023-03-13T05:30:26.330Z,4.00
2023-03-13T05:31:26.443Z,8.00
2023-03-13T05:32:26.380Z,8.00
2023-03-13T05:33:26.264Z,8.00
2023-03-13T05:34:26.236Z,12.00
2023-03-13T05:35:26.256Z,12.00
2023-03-13T05:36:26.191Z,12.00
2023-03-13T05:37:26.370Z,16.00
2023-03-13T05:38:26.137Z,16.00
2023-03-13T05:39:26.119Z,20.00
2023-03-13T05:40:26.093Z,24.00
2023-03-13T05:41:26.080Z,28.00
2023-03-13T05:42:26.047Z,32.00
2023-03-13T05:43:26.018Z,36.00
2023-03-13T05:44:25.992Z,40.00
2023-03-13T05:45:25.992Z,44.00
2023-03-13T05:46:26.028Z,44.00
2023-03-13T05:47:25.947Z,48.00
2023-03-13T05:48:25.906Z,52.00
2023-03-13T05:49:25.897Z,52.00
2023-03-13T05:50:25.848Z,56.00
2023-03-13T05:51:25.834Z,56.00
2023-03-13T05:52:25.801Z,68.00
2023-03-13T05:53:25.784Z,84.00
2023-03-13T05:54:25.758Z,104.00
2023-03-13T05:55:25.734Z,116.00
2023-03-13T05:56:25.725Z,156.00
2023-03-13T05:57:25.683Z,188.00
2023-03-13T05:58:25.669Z,224.00
2023-03-13T05:59:25.639Z,244.00
2023-03-13T06:00:25.629Z,260.00
2023-03-13T06:01:25.592Z,240.00
2023-03-13T06:02:25.564Z,248.00
2023-03-13T06:03:25.573Z,248.00
2023-03-13T06:04:25.629Z,232.00
2023-03-13T06:05:25.501Z,224.00
2023-03-13T06:06:25.473Z,228.00
2023-03-13T06:07:25.453Z,216.00
2023-03-13T06:08:25.426Z,232.00
2023-03-13T06:09:25.410Z,268.00
2023-03-13T06:10:25.374Z,312.00
2023-03-13T06:11:25.414Z,312.00
2023-03-13T06:12:25.334Z,348.00
2023-03-13T06:13:25.303Z,408.00
2023-03-13T06:14:25.280Z,328.00
2023-03-13T06:15:25.259Z,348.00
2023-03-13T06:16:25.274Z,332.00
2023-03-13T06:17:25.208Z,336.00
2023-03-13T06:18:25.200Z,344.00
2023-03-13T06:19:25.165Z,388.00
2023-03-13T06:20:25.155Z,380.00
2023-03-13T06:21:25.150Z,424.00
2023-03-13T06:22:25.094Z,448.00
2023-03-13T06:23:25.067Z,560.00
2023-03-13T06:24:25.050Z,564.00
2023-03-13T06:25:25.028Z,552.00
2023-03-13T06:26:25.002Z,584.00
2023-03-13T06:27:24.976Z,560.00
2023-03-13T06:28:24.962Z,548.00
2023-03-13T06:29:24.933Z,516.00
2023-03-13T06:30:24.903Z,540.00
2023-03-13T06:31:24.935Z,612.00
2023-03-13T06:32:24.951Z,624.00
2023-03-13T06:33:24.941Z,688.00
2023-03-13T06:34:24.804Z,732.00
2023-03-13T06:35:24.788Z,720.00
2023-03-13T06:36:24.814Z,816.00
2023-03-13T06:37:24.740Z,1064.00
2023-03-13T06:38:24.779Z,976.00
2023-03-13T06:39:24.707Z,1076.00
2023-03-13T06:40:24.671Z,1024.00
2023-03-13T06:41:24.664Z,1220.00
2023-03-13T06:42:24.619Z,1052.00
2023-03-13T06:43:24.605Z,988.00
2023-03-13T06:44:24.572Z,1096.00
2023-03-13T06:45:24.563Z,1184.00
2023-03-13T06:46:24.558Z,1436.00
2023-03-13T06:47:24.510Z,1280.00
2023-03-13T06:48:24.531Z,1184.00
2023-03-13T06:49:24.465Z,1372.00
2023-03-13T06:50:24.428Z,1176.00
2023-03-13T06:51:24.441Z,1396.00
2023-03-13T06:52:34.122Z,1196.00
2023-03-13T06:53:24.370Z,1068.00
2023-03-13T06:54:24.342Z,1288.00
2023-03-13T06:55:24.319Z,1280.00
2023-03-13T06:56:24.295Z,1428.00
2023-03-13T06:57:24.282Z,1244.00
2023-03-13T06:58:32.009Z,1372.00
2023-03-13T06:59:24.235Z,1668.00
2023-03-13T07:00:24.212Z,1652.00
2023-03-13T07:01:24.286Z,1512.00
2023-03-13T07:02:24.155Z,1620.00
2023-03-13T07:03:24.148Z,1588.00
2023-03-13T07:04:24.115Z,1576.00
2023-03-13T07:05:24.101Z,1784.00
2023-03-13T07:06:24.066Z,1824.00
2023-03-13T07:07:31.722Z,1848.00
2023-03-13T07:08:24.022Z,2160.00
2023-03-13T07:09:24.030Z,2560.00
2023-03-13T07:10:25.149Z,2188.00
2023-03-13T07:11:23.950Z,2608.00
2023-03-13T07:12:23.925Z,3136.00
2023-03-13T07:13:23.928Z,3588.00
2023-03-13T07:14:23.896Z,4520.00
2023-03-13T07:15:23.871Z,4292.00
2023-03-13T07:16:23.865Z,4120.00
2023-03-13T07:17:23.878Z,4116.00
2023-03-13T07:18:23.840Z,3580.00
2023-03-13T07:19:23.770Z,3808.00
2023-03-13T07:20:23.836Z,3828.00
2023-03-13T07:21:23.728Z,3792.00
2023-03-13T07:22:23.701Z,3156.00
2023-03-13T07:23:23.702Z,2400.00
2023-03-13T07:24:23.699Z,2488.00
2023-03-13T07:25:23.646Z,2508.00
2023-03-13T07:26:23.656Z,2160.00
2023-03-13T07:27:23.645Z,2848.00
2023-03-13T07:28:23.577Z,2436.00
2023-03-13T07:29:23.569Z,1976.00
2023-03-13T07:30:23.601Z,2152.00
2023-03-13T07:31:23.521Z,1664.00
2023-03-13T07:32:23.496Z,1428.00
2023-03-13T07:33:23.452Z,1468.00
2023-03-13T07:34:23.427Z,1632.00
2023-03-13T07:35:23.410Z,1556.00
2023-03-13T07:36:23.460Z,1912.00
2023-03-13T07:37:23.367Z,2260.00
2023-03-13T07:38:23.338Z,2688.00
2023-03-13T07:39:23.315Z,3108.00
2023-03-13T07:40:23.289Z,3352.00
2023-03-13T07:41:23.269Z,3476.00
2023-03-13T07:42:23.249Z,3292.00
2023-03-13T07:43:23.222Z,3120.00
2023-03-13T07:44:23.209Z,2820.00
2023-03-13T07:45:23.181Z,2892.00
2023-03-13T07:46:23.254Z,2280.00
2023-03-13T07:47:23.132Z,2096.00
2023-03-13T07:48:23.114Z,2376.00
2023-03-13T07:49:23.101Z,2204.00
2023-03-13T07:50:23.124Z,1900.00
2023-03-13T07:51:33.529Z,2108.00
2023-03-13T07:52:23.061Z,1908.00
2023-03-13T07:53:23.059Z,1960.00
2023-03-13T07:54:23.052Z,2068.00
2023-03-13T07:55:22.968Z,1988.00
2023-03-13T07:56:22.932Z,1940.00
2023-03-13T07:57:22.905Z,1948.00
2023-03-13T07:58:22.886Z,1952.00
2023-03-13T07:59:22.864Z,1884.00
2023-03-13T08:00:22.846Z,1840.00
2023-03-13T08:01:25.134Z,2192.00
2023-03-13T08:02:22.917Z,2328.00
2023-03-13T08:03:22.825Z,2304.00
2023-03-13T08:04:22.827Z,1940.00
2023-03-13T08:05:22.717Z,2040.00
2023-03-13T08:06:22.703Z,2112.00
2023-03-13T08:07:22.675Z,2016.00
2023-03-13T08:08:22.657Z,2192.00
2023-03-13T08:09:22.645Z,2380.00
2023-03-13T08:10:22.612Z,2440.00
2023-03-13T08:11:22.583Z,2572.00
2023-03-13T08:12:22.571Z,2596.00
2023-03-13T08:13:22.541Z,2380.00
2023-03-13T08:14:22.522Z,2176.00
2023-03-13T08:15:22.491Z,2600.00
2023-03-13T08:16:22.535Z,2552.00
2023-03-13T08:17:22.453Z,2640.00
2023-03-13T08:18:22.436Z,2960.00
2023-03-13T08:19:22.399Z,3012.00
2023-03-13T08:20:22.390Z,2784.00
2023-03-13T08:21:22.366Z,2836.00
2023-03-13T08:22:22.334Z,2944.00
2023-03-13T08:23:22.317Z,3680.00
2023-03-13T08:24:22.331Z,4124.00
2023-03-13T08:25:22.260Z,3624.00
2023-03-13T08:26:22.243Z,3356.00
2023-03-13T08:27:22.232Z,3112.00
2023-03-13T08:28:22.236Z,3280.00
2023-03-13T08:29:22.176Z,3320.00
2023-03-13T08:30:22.156Z,2408.00
2023-03-13T08:31:22.276Z,2332.00
2023-03-13T08:32:22.160Z,2384.00
2023-03-13T08:33:22.104Z,3024.00
2023-03-13T08:34:22.068Z,2768.00
2023-03-13T08:35:22.055Z,2816.00
2023-03-13T08:36:22.076Z,3152.00
2023-03-13T08:37:22.007Z,3080.00
2023-03-13T08:38:21.995Z,2788.00
2023-03-13T08:39:21.968Z,3656.00
2023-03-13T08:40:21.943Z,3404.00
2023-03-13T08:41:21.916Z,3504.00
2023-03-13T08:42:21.889Z,3668.00
2023-03-13T08:43:21.866Z,4380.00
2023-03-13T08:44:21.864Z,3832.00
2023-03-13T08:45:21.830Z,4000.00
2023-03-13T08:46:21.866Z,3568.00
2023-03-13T08:47:21.800Z,4132.00
2023-03-13T08:48:21.766Z,4356.00
2023-03-13T08:49:21.766Z,4160.00
2023-03-13T08:50:21.749Z,4744.00
2023-03-13T08:51:21.697Z,4372.00
2023-03-13T08:52:21.673Z,3800.00
2023-03-13T08:53:21.663Z,3832.00
2023-03-13T08:54:21.630Z,3764.00
2023-03-13T08:55:21.616Z,3568.00
2023-03-13T08:56:21.594Z,3788.00
2023-03-13T08:57:21.563Z,3372.00
2023-03-13T08:58:21.556Z,2676.00
2023-03-13T08:59:21.533Z,2756.00
2023-03-13T09:00:21.498Z,3028.00
2023-03-13T09:01:21.496Z,3284.00
2023-03-13T09:02:21.513Z,3572.00
2023-03-13T09:03:21.476Z,3328.00
2023-03-13T09:04:21.428Z,3464.00
2023-03-13T09:05:21.394Z,3428.00
2023-03-13T09:06:21.381Z,3216.00
2023-03-13T09:07:21.369Z,2800.00
2023-03-13T09:08:21.329Z,2892.00
2023-03-13T09:09:23.241Z,3172.00
2023-03-13T09:10:21.294Z,3324.00
2023-03-13T09:11:21.276Z,3416.00
2023-03-13T09:12:30.387Z,3736.00
2023-03-13T09:13:21.218Z,3284.00
2023-03-13T09:14:21.198Z,3516.00
2023-03-13T09:15:21.184Z,3492.00
2023-03-13T09:16:21.227Z,3648.00
2023-03-13T09:17:21.132Z,3444.00
2023-03-13T09:18:21.199Z,4332.00
2023-03-13T09:19:21.091Z,4404.00
2023-03-13T09:20:21.069Z,5352.00
2023-03-13T09:21:21.076Z,5836.00
2023-03-13T09:22:21.032Z,6352.00
2023-03-13T09:23:21.019Z,6232.00
2023-03-13T09:24:20.993Z,7100.00
2023-03-13T09:25:20.962Z,5676.00
2023-03-13T09:26:22.983Z,4312.00
2023-03-13T09:27:20.924Z,4472.00
2023-03-13T09:28:20.900Z,4316.00
2023-03-13T09:29:20.873Z,2908.00
2023-03-13T09:30:20.884Z,3792.00
2023-03-13T09:31:20.927Z,4112.00
2023-03-13T09:32:20.862Z,4980.00
2023-03-13T09:33:20.797Z,4092.00
2023-03-13T09:34:20.770Z,3252.00
2023-03-13T09:35:20.750Z,2700.00
2023-03-13T09:36:22.399Z,2932.00
2023-03-13T09:37:20.716Z,3564.00
2023-03-13T09:38:20.697Z,3384.00
2023-03-13T09:39:20.676Z,2876.00
2023-03-13T09:40:20.643Z,3360.00
2023-03-13T09:41:20.660Z,3616.00
2023-03-13T09:42:20.603Z,3340.00
2023-03-13T09:43:20.585Z,3836.00
2023-03-13T09:44:20.576Z,3128.00
2023-03-13T09:45:20.535Z,3708.00
2023-03-13T09:46:20.566Z,5224.00
2023-03-13T09:47:20.488Z,6824.00
2023-03-13T09:48:20.482Z,8576.00
2023-03-13T09:49:20.452Z,7684.00
2023-03-13T09:50:20.430Z,7712.00
2023-03-13T09:51:20.413Z,8148.00
2023-03-13T09:52:20.390Z,8452.00
2023-03-13T09:53:20.369Z,8004.00
2023-03-13T09:54:20.368Z,7812.00
2023-03-13T09:55:20.321Z,7668.00
2023-03-13T09:56:20.303Z,7244.00
2023-03-13T09:57:20.284Z,9068.00
2023-03-13T09:58:20.266Z,9984.00
2023-03-13T09:59:20.243Z,9096.00
2023-03-13T10:00:20.224Z,7952.00
2023-03-13T10:01:20.222Z,7812.00
2023-03-13T10:02:20.185Z,8380.00
2023-03-13T10:03:20.172Z,8756.00
2023-03-13T10:04:20.191Z,6808.00
2023-03-13T10:05:20.116Z,7068.00
2023-03-13T10:06:20.101Z,7668.00
2023-03-13T10:07:20.090Z,7724.00
2023-03-13T10:08:20.086Z,7052.00
2023-03-13T10:09:20.047Z,7408.00
2023-03-13T10:10:20.037Z,5772.00
2023-03-13T10:11:20.025Z,5092.00
2023-03-13T10:12:19.983Z,4892.00
2023-03-13T10:13:19.956Z,4948.00
2023-03-13T10:14:19.944Z,4648.00
2023-03-13T10:15:19.928Z,4016.00
2023-03-13T10:16:19.976Z,4712.00
2023-03-13T10:17:19.873Z,4836.00
2023-03-13T10:18:19.884Z,5160.00
2023-03-13T10:19:19.846Z,8248.00
2023-03-13T10:20:19.817Z,8644.00
2023-03-13T10:21:19.806Z,7936.00
2023-03-13T10:22:19.793Z,9104.00
2023-03-13T10:23:19.756Z,8996.00
2023-03-13T10:24:19.749Z,9020.00
2023-03-13T10:25:19.730Z,7904.00
2023-03-13T10:26:19.714Z,7064.00
2023-03-13T10:27:19.676Z,10412.00
2023-03-13T10:28:19.667Z,11544.00
2023-03-13T10:29:19.648Z,8220.00
2023-03-13T10:30:19.683Z,6120.00
2023-03-13T10:31:19.639Z,4908.00
2023-03-13T10:32:19.651Z,5972.00
2023-03-13T10:33:19.566Z,8892.00
2023-03-13T10:34:19.565Z,10340.00
2023-03-13T10:35:19.521Z,8412.00
2023-03-13T10:36:19.566Z,6784.00
2023-03-13T10:37:19.494Z,8668.00
2023-03-13T10:38:19.473Z,8128.00
2023-03-13T10:39:19.447Z,6056.00
2023-03-13T10:40:19.464Z,5872.00
2023-03-13T10:41:19.418Z,5212.00
2023-03-13T10:42:19.391Z,4664.00
2023-03-13T10:43:21.903Z,5180.00
2023-03-13T10:44:19.346Z,6656.00
2023-03-13T10:45:19.323Z,7616.00
2023-03-13T10:46:19.330Z,9056.00
2023-03-13T10:47:19.289Z,11480.00
2023-03-13T10:48:19.268Z,11276.00
2023-03-13T10:49:19.251Z,10536.00
2023-03-13T10:50:19.324Z,10872.00
2023-03-13T10:51:19.253Z,10772.00
2023-03-13T10:52:19.187Z,10868.00
2023-03-13T10:53:19.182Z,7852.00
2023-03-13T10:54:19.150Z,7140.00
2023-03-13T10:55:19.125Z,7908.00
2023-03-13T10:56:19.139Z,8000.00
2023-03-13T10:57:19.132Z,8000.00
2023-03-13T10:58:19.071Z,7332.00
2023-03-13T10:59:19.059Z,7412.00
2023-03-13T11:00:19.034Z,6476.00
2023-03-13T11:01:19.011Z,6416.00
2023-03-13T11:02:19.021Z,6108.00
2023-03-13T11:03:19.078Z,6392.00
2023-03-13T11:04:18.956Z,6788.00
2023-03-13T11:05:18.935Z,7668.00
2023-03-13T11:06:18.940Z,7768.00
2023-03-13T11:07:18.892Z,9504.00
2023-03-13T11:08:18.914Z,9840.00
2023-03-13T11:09:18.859Z,9160.00
2023-03-13T11:10:19.005Z,7896.00
2023-03-13T11:11:18.818Z,6732.00
2023-03-13T11:12:18.799Z,5836.00
2023-03-13T11:13:34.073Z,8756.00
2023-03-13T11:14:18.772Z,8372.00
2023-03-13T11:15:18.815Z,7700.00
2023-03-13T11:16:18.801Z,8364.00
2023-03-13T11:17:18.701Z,10020.00
2023-03-13T11:18:18.692Z,10248.00
2023-03-13T11:19:18.695Z,11632.00
2023-03-13T11:20:18.636Z,15300.00
2023-03-13T11:21:18.769Z,14656.00
2023-03-13T11:22:18.642Z,11308.00
2023-03-13T11:23:18.586Z,9808.00
2023-03-13T11:24:18.566Z,8520.00
2023-03-13T11:25:18.558Z,8624.00
2023-03-13T11:26:18.578Z,7680.00
2023-03-13T11:27:18.519Z,6596.00
2023-03-13T11:28:18.484Z,6456.00
2023-03-13T11:29:18.628Z,6260.00
2023-03-13T11:30:18.450Z,5240.00
2023-03-13T11:31:18.483Z,5468.00
2023-03-13T11:32:18.517Z,6536.00
2023-03-13T11:33:18.399Z,6896.00
2023-03-13T11:34:18.377Z,7100.00
2023-03-13T11:35:18.354Z,8464.00
2023-03-13T11:36:18.331Z,8748.00
2023-03-13T11:37:18.322Z,7436.00
2023-03-13T11:38:18.326Z,7264.00
2023-03-13T11:39:18.285Z,8884.00
2023-03-13T11:40:18.287Z,8632.00
2023-03-13T11:41:18.255Z,8848.00
2023-03-13T11:42:18.220Z,8492.00
2023-03-13T11:43:25.342Z,7992.00
2023-03-13T11:44:18.180Z,8836.00
2023-03-13T11:45:18.179Z,8444.00
2023-03-13T11:46:18.249Z,9312.00
2023-03-13T11:47:18.128Z,8144.00
2023-03-13T11:48:18.101Z,8688.00
2023-03-13T11:49:18.102Z,8832.00
2023-03-13T11:50:18.062Z,9784.00
2023-03-13T11:51:20.652Z,9772.00
2023-03-13T11:52:18.029Z,9904.00
2023-03-13T11:53:18.051Z,10324.00
2023-03-13T11:54:17.993Z,10328.00
2023-03-13T11:55:17.980Z,11636.00
2023-03-13T11:56:17.952Z,17632.00
2023-03-13T11:57:17.941Z,22464.00
2023-03-13T11:58:17.925Z,28288.00
2023-03-13T11:59:17.962Z,27552.00
2023-03-13T12:00:17.877Z,29216.00
2023-03-13T12:01:17.934Z,37088.00
2023-03-13T12:02:17.923Z,30272.00
2023-03-13T12:03:17.864Z,29248.00
2023-03-13T12:04:17.804Z,25184.00
2023-03-13T12:05:17.889Z,23776.00
2023-03-13T12:06:27.555Z,20192.00
2023-03-13T12:07:17.774Z,17120.00
2023-03-13T12:08:17.748Z,17536.00
2023-03-13T12:09:17.764Z,16352.00
2023-03-13T12:10:17.720Z,12400.00
2023-03-13T12:11:17.700Z,12200.00
2023-03-13T12:12:17.708Z,13640.00
2023-03-13T12:13:17.667Z,13008.00
2023-03-13T12:14:17.658Z,14076.00
2023-03-13T12:15:19.184Z,14668.00
2023-03-13T12:16:17.698Z,13204.00
2023-03-13T12:17:17.658Z,16824.00
2023-03-13T12:18:17.594Z,13900.00
2023-03-13T12:19:17.589Z,12496.00
2023-03-13T12:20:17.555Z,11372.00
2023-03-13T12:21:17.536Z,8160.00
2023-03-13T12:22:17.520Z,7052.00
2023-03-13T12:23:17.539Z,8744.00
2023-03-13T12:24:17.483Z,7608.00
2023-03-13T12:25:17.562Z,6908.00
2023-03-13T12:26:17.468Z,6420.00
2023-03-13T12:27:17.441Z,6492.00
2023-03-13T12:28:17.547Z,6728.00
2023-03-13T12:29:17.414Z,9448.00
2023-03-13T12:30:17.386Z,11416.00
2023-03-13T12:31:17.429Z,13000.00
2023-03-13T12:32:17.398Z,9472.00
2023-03-13T12:33:17.419Z,9076.00
2023-03-13T12:34:17.331Z,10456.00
2023-03-13T12:35:17.316Z,15764.00
2023-03-13T12:36:17.309Z,17156.00
2023-03-13T12:37:17.272Z,21504.00